Time;durP1;ratioP1;P1;durP2;ratioP2;P2;SDS_P1;SDS_P2;PMS_P1;PMS_P2;Temp;Humidity;BMP_temperature;BMP_pressure;BME280_temperature;BME280_humidity;BME280_pressure;Samples;Min_cycle;Max_cycle;Signal;HPM_P1;HPM_P2
2021/06/13 00:01:46;;;;;;;13.40;2.97;;;;;;;13.98;68.76;101140.88;5072302;28;20027;-74
2021/06/13 00:04:12;;;;;;;11.48;1.83;;;;;;;13.96;68.89;101156.78;5046470;28;20025;-73
2021/06/13 00:06:37;;;;;;;11.50;2.17;;;;;;;13.94;68.50;101142.56;5062354;28;20032;-73
2021/06/13 00:09:04;;;;;;;12.02;2.42;;;;;;;13.92;68.51;101139.31;5072073;28;20054;-73
2021/06/13 00:11:29;;;;;;;7.25;1.60;;;;;;;13.90;67.90;101147.78;5071609;28;20428;-73
2021/06/13 00:13:54;;;;;;;14.73;2.97;;;;;;;13.91;67.91;101159.56;5071034;28;20024;-73
2021/06/13 00:16:20;;;;;;;14.73;2.08;;;;;;;13.91;67.99;101154.09;5072667;28;20024;-74
2021/06/13 00:18:47;;;;;;;6.53;1.58;;;;;;;13.88;68.26;101133.56;5071092;28;20032;-73
2021/06/13 00:21:13;;;;;;;8.15;1.63;;;;;;;13.88;67.81;101160.16;5067972;28;20025;-73
2021/06/13 00:23:40;;;;;;;10.70;1.98;;;;;;;13.88;67.68;101140.97;5043332;28;20023;-73
2021/06/13 00:26:06;;;;;;;9.77;1.67;;;;;;;13.87;67.87;101148.38;5063210;28;20025;-73
2021/06/13 00:28:31;;;;;;;4.63;1.48;;;;;;;13.86;67.93;101167.84;5070408;28;20066;-73
2021/06/13 00:30:57;;;;;;;12.63;2.28;;;;;;;13.84;67.95;101157.19;5072594;28;20462;-73
2021/06/13 00:33:22;;;;;;;9.88;2.15;;;;;;;13.83;67.82;101154.72;5072128;28;20074;-73
2021/06/13 00:35:48;;;;;;;6.65;1.60;;;;;;;13.82;67.66;101169.53;5073856;28;20531;-73
2021/06/13 00:38:13;;;;;;;7.82;1.58;;;;;;;13.82;68.07;101153.91;5076514;28;20043;-73
2021/06/13 00:40:38;;;;;;;9.77;2.53;;;;;;;13.80;68.59;101147.88;5075322;28;20020;-73
2021/06/13 00:43:04;;;;;;;11.43;1.92;;;;;;;13.77;68.56;101157.47;5075877;28;20047;-73
2021/06/13 00:45:30;;;;;;;9.52;2.83;;;;;;;13.75;68.40;101146.00;5076423;28;20074;-74
2021/06/13 00:47:55;;;;;;;8.02;2.28;;;;;;;13.75;68.18;101170.69;5075252;28;20025;-73
2021/06/13 00:50:45;;;;;;;10.70;1.80;;;;;;;13.74;67.83;101174.50;5076105;28;20330;-73
2021/06/13 00:53:12;;;;;;;9.07;1.52;;;;;;;13.73;67.75;101172.88;5074793;28;20036;-72
2021/06/13 00:55:37;;;;;;;6.50;1.48;;;;;;;13.74;67.78;101166.28;5076291;28;20028;-73
2021/06/13 00:58:04;;;;;;;11.25;1.65;;;;;;;13.73;68.15;101188.50;5074408;28;20326;-74
2021/06/13 01:00:29;;;;;;;9.70;1.40;;;;;;;13.72;68.22;101170.41;5070226;28;20025;-73
2021/06/13 01:02:56;;;;;;;6.57;1.63;;;;;;;13.71;68.05;101157.81;5075046;28;20373;-74
2021/06/13 01:05:23;;;;;;;8.38;1.70;;;;;;;13.69;68.18;101155.34;5074471;28;20037;-73
2021/06/13 01:07:57;;;;;;;8.20;1.77;;;;;;;13.68;68.39;101164.69;5075857;28;20025;-74
2021/06/13 01:10:34;;;;;;;7.32;1.40;;;;;;;13.67;68.35;101160.31;5058031;28;20031;-73
2021/06/13 01:13:09;;;;;;;9.85;2.38;;;;;;;13.64;68.35;101204.75;5075857;28;20086;-73
2021/06/13 01:15:38;;;;;;;14.20;2.55;;;;;;;13.65;68.10;101175.41;5068049;28;20032;-74
2021/06/13 01:18:22;;;;;;;10.73;2.15;;;;;;;13.64;68.38;101185.56;5038000;28;20024;-73
2021/06/13 01:20:52;;;;;;;9.18;2.28;;;;;;;13.64;68.41;101188.28;5052009;28;20102;-74
2021/06/13 01:23:29;;;;;;;12.63;2.78;;;;;;;13.63;68.28;101186.66;5043289;28;20025;-74
2021/06/13 01:26:19;;;;;;;11.35;3.00;;;;;;;13.62;68.31;101176.81;5075825;28;20021;-74
2021/06/13 01:28:56;;;;;;;8.88;2.40;;;;;;;13.62;68.57;101206.94;5074635;28;20025;-74
2021/06/13 01:31:27;;;;;;;9.07;1.70;;;;;;;13.63;68.86;101185.84;5075639;28;20025;-74
2021/06/13 01:33:53;;;;;;;7.70;2.05;;;;;;;13.61;68.77;101210.75;5043960;28;20051;-73
2021/06/13 01:36:19;;;;;;;11.57;2.17;;;;;;;13.61;69.23;101208.03;5074170;28;20557;-72
2021/06/13 01:38:45;;;;;;;13.57;3.47;;;;;;;13.61;69.27;101197.06;5073671;28;20088;-73
2021/06/13 01:41:10;;;;;;;10.48;2.72;;;;;;;13.58;69.71;101194.91;5074291;28;20028;-72
2021/06/13 01:43:36;;;;;;;11.73;2.42;;;;;;;13.58;69.60;101192.16;5075173;28;20474;-73
2021/06/13 01:46:01;;;;;;;14.10;3.00;;;;;;;13.58;70.17;101202.31;5054317;28;20028;-73
2021/06/13 01:48:27;;;;;;;13.80;1.73;;;;;;;13.55;70.41;101200.94;5049170;28;20028;-72
2021/06/13 01:50:52;;;;;;;10.20;2.33;;;;;;;13.55;70.31;101198.19;5075146;28;20458;-73
2021/06/13 01:53:18;;;;;;;18.67;2.40;;;;;;;13.56;70.35;101199.84;5054113;28;20092;-72
2021/06/13 01:55:52;;;;;;;11.75;1.98;;;;;;;13.54;70.31;101186.44;5074110;28;20079;-72
2021/06/13 01:58:18;;;;;;;9.82;2.47;;;;;;;13.52;70.48;101210.53;5055817;28;20039;-73
2021/06/13 02:00:45;;;;;;;8.27;1.85;;;;;;;13.52;70.46;101205.06;5057178;28;20035;-73
2021/06/13 02:03:10;;;;;;;9.02;1.75;;;;;;;13.51;70.50;101208.09;5053415;28;20442;-73
2021/06/13 02:05:36;;;;;;;9.38;2.42;;;;;;;13.50;70.60;101204.56;5072234;28;20028;-73
2021/06/13 02:08:01;;;;;;;9.13;2.50;;;;;;;13.50;70.44;101212.78;5057308;28;20477;-72
2021/06/13 02:10:27;;;;;;;9.73;1.77;;;;;;;13.51;70.58;101202.63;5074559;28;20081;-73
2021/06/13 02:12:52;;;;;;;8.68;1.83;;;;;;;13.50;70.63;101225.63;5073681;28;20025;-73
2021/06/13 02:15:21;;;;;;;8.38;1.73;;;;;;;13.51;70.82;101219.06;5056533;28;20032;-73
2021/06/13 02:17:47;;;;;;;9.48;1.83;;;;;;;13.50;70.75;101229.19;5057136;28;20466;-74
2021/06/13 02:20:13;;;;;;;11.52;2.08;;;;;;;13.50;70.79;101226.47;5073115;28;20038;-74
2021/06/13 02:22:40;;;;;;;10.98;2.53;;;;;;;13.52;70.88;101226.16;5073766;28;20032;-74
2021/06/13 02:25:06;;;;;;;13.30;3.00;;;;;;;13.51;70.81;101240.97;5072500;28;20470;-74
2021/06/13 02:27:32;;;;;;;15.35;2.35;;;;;;;13.49;70.69;101227.53;5074991;28;20424;-74
2021/06/13 02:29:58;;;;;;;10.85;1.70;;;;;;;13.51;70.56;101235.50;5056206;28;20466;-74
2021/06/13 02:32:24;;;;;;;10.57;1.80;;;;;;;13.55;70.52;101244.78;5053550;28;20044;-74
2021/06/13 02:34:51;;;;;;;12.70;2.00;;;;;;;13.57;70.52;101249.97;5066858;28;20028;-74
2021/06/13 02:37:16;;;;;;;8.65;1.42;;;;;;;13.55;70.56;101258.47;5073308;28;20043;-74
2021/06/13 02:39:41;;;;;;;10.63;1.90;;;;;;;13.54;69.96;101246.69;5055946;28;20024;-74
2021/06/13 02:42:07;;;;;;;10.98;1.95;;;;;;;13.56;69.81;101260.13;5074072;28;20462;-73
2021/06/13 02:44:32;;;;;;;6.60;1.33;;;;;;;13.56;69.67;101268.34;5074516;28;20025;-74
2021/06/13 02:46:58;;;;;;;11.65;2.17;;;;;;;13.57;69.55;101275.44;5042229;28;20386;-73
2021/06/13 02:49:23;;;;;;;5.13;0.80;;;;;;;13.58;69.04;101273.53;5072577;28;20025;-74
2021/06/13 02:52:04;;;;;;;6.80;1.20;;;;;;;13.59;68.58;101272.44;5074444;28;20016;-73
2021/06/13 02:54:30;;;;;;;5.80;1.30;;;;;;;13.60;68.24;101265.84;5059456;28;20035;-74
2021/06/13 02:56:59;;;;;;;9.32;1.73;;;;;;;13.62;68.38;101274.63;5053011;28;20021;-74
2021/06/13 02:59:36;;;;;;;7.93;1.48;;;;;;;13.64;68.24;101267.75;5041864;28;20032;-73
2021/06/13 03:02:01;;;;;;;8.52;1.48;;;;;;;13.64;68.31;101262.28;5074031;28;20508;-74
2021/06/13 03:04:27;;;;;;;12.77;2.08;;;;;;;13.65;68.05;101277.59;5072381;28;20259;-74
2021/06/13 03:06:56;;;;;;;6.15;1.63;;;;;;;13.69;67.94;101286.06;5056007;28;20036;-74
2021/06/13 03:09:28;;;;;;;6.07;1.25;;;;;;;13.68;67.85;101296.22;5072154;28;20024;-73
2021/06/13 03:11:54;;;;;;;10.35;1.73;;;;;;;13.69;68.10;101297.03;5072532;28;20021;-74
2021/06/13 03:14:20;;;;;;;10.35;1.98;;;;;;;13.69;67.76;101306.06;5057172;28;20024;-73
2021/06/13 03:16:46;;;;;;;9.30;1.70;;;;;;;13.69;67.78;101316.22;5056178;28;20044;-74
2021/06/13 03:19:11;;;;;;;4.25;1.25;;;;;;;13.70;67.75;101320.59;5055183;28;20027;-73
2021/06/13 03:21:37;;;;;;;7.90;1.73;;;;;;;13.70;67.87;101324.16;5056088;28;20100;-73
2021/06/13 03:24:03;;;;;;;5.97;1.20;;;;;;;13.72;67.85;101324.69;5054706;28;20466;-73
2021/06/13 03:26:28;;;;;;;6.65;1.10;;;;;;;13.74;67.44;101327.97;5058537;28;20029;-73
2021/06/13 03:28:56;;;;;;;7.80;1.55;;;;;;;13.75;67.27;101318.66;5053310;28;20374;-73
2021/06/13 03:31:22;;;;;;;10.73;1.70;;;;;;;13.75;67.16;101335.09;5072387;28;20089;-74
2021/06/13 03:33:47;;;;;;;4.78;0.93;;;;;;;13.78;67.50;101322.75;5073107;28;20021;-73
2021/06/13 03:36:13;;;;;;;9.18;2.05;;;;;;;13.77;67.59;101321.91;5055419;28;20116;-73
2021/06/13 03:38:38;;;;;;;8.73;1.60;;;;;;;13.79;67.63;101334.53;5055566;28;20023;-73
2021/06/13 03:41:03;;;;;;;9.23;1.50;;;;;;;13.81;67.46;101346.03;5071423;28;20021;-73
2021/06/13 03:43:30;;;;;;;8.70;1.58;;;;;;;13.81;67.83;101335.06;5053255;28;20067;-73
2021/06/13 03:45:55;;;;;;;6.80;1.05;;;;;;;13.82;67.82;101332.03;5071876;28;20424;-73
2021/06/13 03:48:21;;;;;;;5.40;1.60;;;;;;;13.83;67.76;101341.06;5052092;28;20028;-73
2021/06/13 03:50:46;;;;;;;6.53;1.20;;;;;;;13.84;67.72;101342.72;5071776;28;20025;-73
2021/06/13 03:53:12;;;;;;;10.90;1.45;;;;;;;13.85;67.62;101366.28;5070823;28;20036;-72
2021/06/13 03:55:38;;;;;;;10.50;1.83;;;;;;;13.86;67.55;101351.47;5071272;28;20012;-73
2021/06/13 03:58:03;;;;;;;12.27;1.58;;;;;;;13.89;67.82;101349.00;5055239;28;20020;-72
2021/06/13 04:00:30;;;;;;;5.65;1.10;;;;;;;13.92;67.63;101361.31;5053570;28;20094;-72
2021/06/13 04:02:55;;;;;;;6.38;1.10;;;;;;;13.94;67.68;101354.47;5058894;28;20090;-72
2021/06/13 04:05:21;;;;;;;6.53;1.50;;;;;;;13.96;67.43;101362.38;5054556;28;20032;-72
2021/06/13 04:07:46;;;;;;;4.97;0.90;;;;;;;13.98;67.65;101360.19;5072721;28;20075;-71
2021/06/13 04:10:12;;;;;;;6.20;1.15;;;;;;;13.99;67.38;101356.34;5071087;28;20488;-72
2021/06/13 04:12:38;;;;;;;8.13;1.40;;;;;;;14.01;67.34;101380.75;5071526;28;20070;-72
2021/06/13 04:15:05;;;;;;;4.47;1.50;;;;;;;14.02;67.11;101376.88;5070863;28;20017;-73
2021/06/13 04:17:30;;;;;;;6.68;1.30;;;;;;;14.05;67.45;101370.84;5054784;28;20115;-73
2021/06/13 04:19:55;;;;;;;6.93;1.30;;;;;;;14.06;67.52;101369.75;5071195;28;20024;-73
2021/06/13 04:22:21;;;;;;;6.47;1.52;;;;;;;14.07;67.57;101369.44;5054397;28;20161;-73
2021/06/13 04:24:48;;;;;;;4.20;1.58;;;;;;;14.09;67.36;101377.41;5070625;28;20036;-73
2021/06/13 04:27:14;;;;;;;7.97;1.33;;;;;;;14.11;67.37;101365.06;5071592;28;20021;-73
2021/06/13 04:29:40;;;;;;;7.78;1.00;;;;;;;14.12;66.79;101377.66;5070846;28;20470;-73
2021/06/13 04:32:09;;;;;;;2.92;1.30;;;;;;;14.13;66.56;101379.31;5071854;28;20024;-73
2021/06/13 04:34:35;;;;;;;2.13;1.10;;;;;;;14.15;66.24;101388.06;5072485;28;20107;-72
2021/06/13 04:37:00;;;;;;;7.78;1.30;;;;;;;14.18;66.39;101386.66;5071114;28;20052;-73
2021/06/13 04:39:25;;;;;;;5.00;1.65;;;;;;;14.20;66.06;101396.25;5072436;28;20028;-72
2021/06/13 04:41:51;;;;;;;4.20;0.95;;;;;;;14.22;66.12;101409.69;5072458;28;20025;-72
2021/06/13 04:44:16;;;;;;;7.03;1.58;;;;;;;14.23;66.46;101405.84;5070617;28;20029;-72
2021/06/13 04:46:42;;;;;;;11.85;1.80;;;;;;;14.24;66.60;101412.97;5050982;28;20037;-73
2021/06/13 04:49:07;;;;;;;5.10;1.30;;;;;;;14.27;66.62;101406.94;5070167;28;20013;-72
2021/06/13 04:51:33;;;;;;;5.32;1.00;;;;;;;14.29;66.21;101414.84;5071578;28;20131;-72
2021/06/13 04:53:58;;;;;;;9.43;1.92;;;;;;;14.29;66.17;101420.34;5054216;28;20469;-73
2021/06/13 04:57:01;;;;;;;4.68;1.10;;;;;;;14.29;65.92;101425.81;5072346;28;20429;-73
2021/06/13 04:59:26;;;;;;;5.65;1.00;;;;;;;14.30;65.53;101424.75;5058183;28;20076;-73
2021/06/13 05:01:52;;;;;;;7.55;1.30;;;;;;;14.31;65.73;101426.38;5072417;28;20102;-74
2021/06/13 05:04:17;;;;;;;3.30;1.10;;;;;;;14.32;65.59;101425.25;5071750;28;20020;-72
2021/06/13 05:06:43;;;;;;;6.60;1.10;;;;;;;14.32;65.20;101415.13;5072120;28;20039;-73
2021/06/13 05:09:09;;;;;;;5.40;1.00;;;;;;;14.33;65.42;101427.72;5070845;28;20026;-73
2021/06/13 05:11:35;;;;;;;5.57;1.10;;;;;;;14.37;65.29;101422.47;5070517;28;20032;-72
2021/06/13 05:14:00;;;;;;;8.38;1.15;;;;;;;14.41;65.52;101423.56;5070754;28;20366;-73
2021/06/13 05:16:25;;;;;;;8.05;1.10;;;;;;;14.43;65.57;101430.41;5071459;28;20386;-74
2021/06/13 05:18:51;;;;;;;6.43;1.00;;;;;;;14.46;65.28;101437.25;5072223;28;20036;-73
2021/06/13 05:21:16;;;;;;;7.43;1.27;;;;;;;14.47;65.40;101441.63;5067456;28;20037;-73
2021/06/13 05:23:42;;;;;;;5.22;1.02;;;;;;;14.50;65.45;101449.28;5074718;28;20043;-73
2021/06/13 05:26:07;;;;;;;4.68;1.25;;;;;;;14.54;65.40;101458.66;5075306;28;20454;-72
2021/06/13 05:28:32;;;;;;;6.50;1.27;;;;;;;14.54;65.15;101458.66;5070466;28;20021;-73
2021/06/13 05:30:58;;;;;;;8.45;1.98;;;;;;;14.56;65.10;101458.34;5068702;28;20374;-74
2021/06/13 05:33:25;;;;;;;8.00;1.20;;;;;;;14.56;65.27;101453.66;5075299;28;20046;-73
2021/06/13 05:35:50;;;;;;;5.55;1.35;;;;;;;14.59;65.23;101469.56;5073991;28;20021;-73
2021/06/13 05:38:16;;;;;;;6.88;1.05;;;;;;;14.63;65.24;101459.66;5076040;28;20031;-74
2021/06/13 05:40:42;;;;;;;9.32;1.30;;;;;;;14.67;65.44;101475.56;5074196;28;20031;-74
2021/06/13 05:43:07;;;;;;;4.35;1.17;;;;;;;14.67;65.22;101475.56;5076247;28;20021;-73
2021/06/13 05:45:33;;;;;;;8.13;1.30;;;;;;;14.68;65.31;101477.19;5073829;28;20457;-73
2021/06/13 05:47:58;;;;;;;8.30;1.60;;;;;;;14.70;65.35;101484.03;5074380;28;20044;-74
2021/06/13 05:50:24;;;;;;;6.68;1.10;;;;;;;14.70;65.19;101489.53;5057022;28;20024;-74
2021/06/13 05:52:49;;;;;;;5.97;1.17;;;;;;;14.71;65.29;101479.41;5073996;28;20469;-73
2021/06/13 05:55:15;;;;;;;4.70;1.02;;;;;;;14.75;65.44;101494.19;5074811;28;20028;-74
2021/06/13 05:57:40;;;;;;;6.35;1.30;;;;;;;14.78;65.66;101493.59;5074002;28;20052;-73
2021/06/13 06:00:11;;;;;;;4.50;1.13;;;;;;;14.77;65.26;101497.47;5074497;28;20397;-74
2021/06/13 06:02:37;;;;;;;6.55;2.25;;;;;;;14.77;65.32;101498.28;5060025;28;20075;-73
2021/06/13 06:05:03;;;;;;;6.35;0.90;;;;;;;14.77;65.25;101498.28;5074311;28;20032;-74
2021/06/13 06:07:29;;;;;;;5.43;0.90;;;;;;;14.80;65.08;101502.38;5074952;28;20028;-73
2021/06/13 06:09:54;;;;;;;6.85;1.30;;;;;;;14.84;65.18;101508.94;5074932;28;20020;-74
2021/06/13 06:12:20;;;;;;;7.28;1.30;;;;;;;14.88;65.22;101515.50;5073421;28;20032;-73
2021/06/13 06:14:46;;;;;;;5.70;1.40;;;;;;;14.89;64.98;101514.38;5074212;28;20043;-73
2021/06/13 06:17:11;;;;;;;4.47;1.08;;;;;;;14.92;65.03;101516.56;5057262;28;20033;-74
2021/06/13 06:19:37;;;;;;;9.55;1.20;;;;;;;14.92;64.91;101527.53;5073304;28;20046;-74
2021/06/13 06:22:03;;;;;;;8.32;1.67;;;;;;;14.94;64.92;101536.31;5081804;28;20165;-73
2021/06/13 06:24:29;;;;;;;3.60;1.15;;;;;;;14.95;64.87;101532.50;5074631;28;20032;-73
2021/06/13 06:26:54;;;;;;;6.47;1.13;;;;;;;15.00;64.96;101537.09;5071502;28;20495;-73
2021/06/13 06:29:20;;;;;;;8.55;1.50;;;;;;;15.00;64.65;101545.34;5074641;28;20070;-73
2021/06/13 06:31:45;;;;;;;6.18;1.50;;;;;;;15.02;64.66;101554.94;5073738;28;20082;-73
2021/06/13 06:34:11;;;;;;;6.85;1.10;;;;;;;15.05;64.82;101559.84;5074252;28;20033;-74
2021/06/13 06:36:36;;;;;;;7.60;1.30;;;;;;;15.09;65.19;101560.94;5072254;28;20045;-74
2021/06/13 06:39:02;;;;;;;9.38;1.08;;;;;;;15.13;65.04;101565.88;5060879;28;20066;-74
2021/06/13 06:41:27;;;;;;;6.65;1.40;;;;;;;15.17;65.10;101561.44;5072756;28;20500;-73
2021/06/13 06:43:52;;;;;;;7.85;1.33;;;;;;;15.22;65.40;101558.66;5072816;28;20027;-74
2021/06/13 06:46:18;;;;;;;6.38;0.88;;;;;;;15.27;65.37;101550.38;5072330;28;20037;-73
2021/06/13 06:48:43;;;;;;;7.28;1.20;;;;;;;15.28;65.47;101557.53;5072563;28;20020;-74
2021/06/13 06:51:09;;;;;;;6.88;1.40;;;;;;;15.29;65.14;101564.66;5073354;28;20032;-74
2021/06/13 06:53:34;;;;;;;6.22;1.10;;;;;;;15.30;65.22;101556.13;5072911;28;20024;-73
2021/06/13 06:56:00;;;;;;;5.70;1.27;;;;;;;15.36;65.46;101550.56;5072605;28;20028;-73
2021/06/13 06:58:27;;;;;;;2.60;1.00;;;;;;;15.40;64.22;101565.38;5074102;28;20016;-73
2021/06/13 07:00:52;;;;;;;6.07;0.77;;;;;;;15.44;63.19;101550.78;5074049;28;20101;-74
2021/06/13 07:03:17;;;;;;;1.25;0.52;;;;;;;15.52;62.28;101555.66;5072614;28;20056;-74
2021/06/13 07:05:43;;;;;;;3.25;0.60;;;;;;;15.54;61.36;101569.09;5073102;28;20496;-74
2021/06/13 07:08:09;;;;;;;4.43;0.95;;;;;;;15.57;60.87;101568.53;5072531;28;20047;-74
2021/06/13 07:10:34;;;;;;;2.90;0.55;;;;;;;15.59;59.77;101573.75;5062916;28;20024;-74
2021/06/13 07:13:00;;;;;;;1.58;0.45;;;;;;;15.61;59.34;101588.03;5072465;28;20016;-73
2021/06/13 07:15:25;;;;;;;2.30;0.70;;;;;;;15.55;58.94;101573.53;5071899;28;20028;-73
2021/06/13 07:17:53;;;;;;;6.65;1.60;;;;;;;15.54;59.27;101589.16;5073601;28;20082;-74
2021/06/13 07:20:19;;;;;;;4.65;1.10;;;;;;;15.59;60.95;101576.50;5071607;28;20496;-73
2021/06/13 07:22:44;;;;;;;6.35;1.25;;;;;;;15.56;62.15;101571.59;5073402;28;20025;-73
2021/06/13 07:25:10;;;;;;;10.00;1.65;;;;;;;15.54;62.92;101567.16;5071742;28;20078;-73
2021/06/13 07:27:35;;;;;;;5.50;1.15;;;;;;;15.54;63.28;101571.84;5072221;28;20036;-73
2021/06/13 07:30:01;;;;;;;5.47;1.52;;;;;;;15.61;63.65;101593.53;5071633;28;20028;-73
2021/06/13 07:32:26;;;;;;;8.23;1.90;;;;;;;15.59;64.30;101579.25;5073526;28;20036;-74
2021/06/13 07:34:52;;;;;;;3.55;1.45;;;;;;;15.65;64.67;101580.84;5072683;28;20032;-73
2021/06/13 07:37:17;;;;;;;6.15;1.42;;;;;;;15.70;64.83;101592.63;5067760;28;20045;-74
2021/06/13 07:39:43;;;;;;;9.93;1.45;;;;;;;15.70;64.75;101591.81;5063903;28;20500;-73
2021/06/13 07:42:08;;;;;;;9.73;1.58;;;;;;;15.68;64.70;101594.00;5073238;28;20021;-73
2021/06/13 07:44:34;;;;;;;4.68;1.40;;;;;;;15.68;64.86;101610.50;5063293;28;20104;-73
2021/06/13 07:46:59;;;;;;;6.53;1.30;;;;;;;15.73;64.82;101613.22;5068009;28;20111;-73
2021/06/13 07:49:25;;;;;;;8.23;1.45;;;;;;;15.74;64.74;101617.63;5064789;28;20033;-73
2021/06/13 07:51:51;;;;;;;6.75;1.58;;;;;;;15.74;64.69;101631.34;5067358;28;20504;-73
2021/06/13 07:54:16;;;;;;;7.22;1.52;;;;;;;15.77;64.47;101630.81;5073015;28;20017;-74
2021/06/13 07:56:42;;;;;;;8.20;1.15;;;;;;;15.76;64.09;101632.72;5072672;28;20027;-73
2021/06/13 07:59:07;;;;;;;7.38;1.50;;;;;;;15.78;63.92;101645.38;5073003;28;20016;-73
2021/06/13 08:01:33;;;;;;;4.57;1.20;;;;;;;15.72;63.77;101636.34;5073017;28;20417;-74
2021/06/13 08:03:59;;;;;;;10.45;1.40;;;;;;;15.74;64.07;101642.34;5071623;28;20020;-74
2021/06/13 08:06:24;;;;;;;6.45;2.05;;;;;;;15.80;64.06;101654.97;5071025;28;20035;-74
2021/06/13 08:08:50;;;;;;;7.80;1.33;;;;;;;15.81;63.87;101669.53;5059304;28;20028;-74
2021/06/13 08:11:15;;;;;;;6.25;1.02;;;;;;;15.80;63.87;101671.47;5071869;28;20033;-74
2021/06/13 08:13:41;;;;;;;5.82;1.73;;;;;;;15.78;63.83;101650.88;5072843;28;20089;-74
2021/06/13 08:16:06;;;;;;;5.50;0.98;;;;;;;15.83;63.83;101656.34;5072345;28;20031;-74
2021/06/13 08:18:32;;;;;;;3.60;0.90;;;;;;;15.85;63.44;101660.44;5074061;28;20036;-73
2021/06/13 08:20:57;;;;;;;5.97;1.27;;;;;;;15.91;63.18;101659.28;5072243;28;20109;-75
2021/06/13 08:23:23;;;;;;;5.25;1.08;;;;;;;15.95;62.51;101679.56;5072713;28;20496;-75
2021/06/13 08:25:49;;;;;;;4.78;0.90;;;;;;;15.93;61.87;101662.56;5071480;28;20032;-72
2021/06/13 08:28:15;;;;;;;5.55;1.00;;;;;;;15.95;62.11;101668.56;5072571;28;20050;-73
2021/06/13 08:30:40;;;;;;;6.90;1.17;;;;;;;16.06;62.31;101676.75;5071014;28;20107;-73
2021/06/13 08:33:06;;;;;;;5.82;1.33;;;;;;;16.06;61.72;101668.50;5071242;28;20029;-73
2021/06/13 08:35:31;;;;;;;3.15;0.90;;;;;;;16.14;61.60;101670.63;5071337;28;20028;-73
2021/06/13 08:37:59;;;;;;;4.85;1.38;;;;;;;16.08;60.78;101685.53;5081159;28;20044;-73
2021/06/13 08:40:24;;;;;;;4.40;1.65;;;;;;;16.08;61.42;101674.53;5054180;28;20025;-72
2021/06/13 08:42:50;;;;;;;4.05;0.90;;;;;;;16.11;61.39;101682.19;5072262;28;20444;-73
2021/06/13 08:45:16;;;;;;;4.78;0.95;;;;;;;16.15;60.85;101681.34;5071956;28;20090;-73
2021/06/13 08:47:41;;;;;;;5.20;0.90;;;;;;;16.21;60.68;101684.88;5070955;28;20043;-74
2021/06/13 08:50:07;;;;;;;4.55;1.13;;;;;;;16.25;60.43;101691.41;5071476;28;20021;-73
2021/06/13 08:52:33;;;;;;;3.20;0.95;;;;;;;16.28;60.25;101701.84;5072418;28;20111;-73
2021/06/13 08:54:59;;;;;;;3.38;1.02;;;;;;;16.28;60.43;101718.34;5071394;28;20028;-72
2021/06/13 08:57:25;;;;;;;6.50;1.00;;;;;;;16.27;60.55;101708.47;5072185;28;20427;-73
2021/06/13 08:59:50;;;;;;;10.35;1.45;;;;;;;16.40;60.75;101698.72;5076427;28;20091;-73
2021/06/13 09:02:16;;;;;;;4.65;0.85;;;;;;;16.52;60.63;101701.06;5076234;28;20044;-73
2021/06/13 09:04:41;;;;;;;4.07;1.00;;;;;;;16.61;60.03;101710.31;5068832;28;20109;-73
2021/06/13 09:07:22;;;;;;;7.82;1.10;;;;;;;16.63;59.84;101703.41;5069213;28;20074;-74
2021/06/13 09:09:47;;;;;;;3.83;1.00;;;;;;;16.65;59.36;101727.91;5063791;28;20017;-73
2021/06/13 09:12:13;;;;;;;2.97;1.17;;;;;;;16.67;59.36;101728.44;5075645;28;20535;-72
2021/06/13 09:14:43;;;;;;;4.45;1.45;;;;;;;16.59;58.63;101731.84;5075589;28;20055;-73
2021/06/13 09:17:13;;;;;;;3.13;0.82;;;;;;;16.48;58.94;101711.00;5075437;28;20074;-73
2021/06/13 09:20:13;;;;;;;6.05;1.20;;;;;;;16.51;59.06;101721.47;5074427;28;20048;-72
2021/06/13 09:22:39;;;;;;;3.35;1.20;;;;;;;16.48;58.97;101711.84;5075198;28;20424;-73
2021/06/13 09:25:06;;;;;;;2.90;1.05;;;;;;;16.48;58.75;101722.00;5058319;28;20054;-73
2021/06/13 09:27:31;;;;;;;5.30;1.20;;;;;;;16.61;58.79;101716.66;5075385;28;20350;-73
2021/06/13 09:29:56;;;;;;;5.32;1.33;;;;;;;16.68;58.17;101741.09;5075603;28;20054;-74
2021/06/13 09:32:22;;;;;;;5.95;1.23;;;;;;;16.73;58.03;101729.22;5075292;28;20035;-73
2021/06/13 09:35:22;;;;;;;3.70;1.20;;;;;;;16.76;57.52;101734.94;5075822;28;20032;-74
2021/06/13 09:38:09;;;;;;;2.60;0.82;;;;;;;16.75;56.69;101736.06;5074987;28;20048;-73
2021/06/13 09:40:35;;;;;;;2.30;1.00;;;;;;;16.79;56.49;101737.13;5075409;28;20074;-73
2021/06/13 09:43:14;;;;;;;4.93;0.77;;;;;;;16.84;56.45;101752.78;5063198;28;20024;-74
2021/06/13 09:45:39;;;;;;;2.88;1.08;;;;;;;16.88;56.37;101764.03;5056018;28;20036;-73
2021/06/13 09:48:05;;;;;;;6.93;1.20;;;;;;;16.87;56.03;101749.44;5074012;28;20028;-73
2021/06/13 09:50:51;;;;;;;3.90;0.98;;;;;;;16.81;56.20;101731.34;5073977;28;20063;-73
2021/06/13 09:53:33;;;;;;;1.50;0.80;;;;;;;16.91;55.90;101777.22;5073757;28;20032;-73
2021/06/13 09:56:10;;;;;;;3.92;1.25;;;;;;;16.91;56.17;101766.19;5074878;28;20100;-73
2021/06/13 09:58:47;;;;;;;4.57;0.77;;;;;;;17.03;55.28;101761.94;5075295;28;20021;-73
2021/06/13 10:01:12;;;;;;;6.65;1.27;;;;;;;17.14;55.54;101757.13;5075145;28;20036;-73
2021/06/13 10:03:38;;;;;;;3.28;1.10;;;;;;;17.19;54.85;101770.03;5073921;28;20024;-73
2021/06/13 10:06:05;;;;;;;3.85;1.17;;;;;;;17.11;54.57;101760.47;5074472;28;20016;-72
2021/06/13 10:08:32;;;;;;;5.95;1.65;;;;;;;17.16;54.56;101770.59;5073432;28;20020;-73
2021/06/13 10:10:58;;;;;;;6.03;1.00;;;;;;;17.18;54.66;101785.72;5074412;28;20393;-73
2021/06/13 10:13:55;;;;;;;5.68;1.48;;;;;;;17.20;54.33;101789.00;5074522;28;20055;-72
2021/06/13 10:16:32;;;;;;;4.50;1.45;;;;;;;17.44;54.18;101794.50;5073041;28;20044;-73
2021/06/13 10:19:09;;;;;;;2.70;0.82;;;;;;;17.56;53.66;101793.25;5057306;28;20065;-73
2021/06/13 10:21:41;;;;;;;2.88;0.90;;;;;;;17.51;53.02;101800.47;5075860;28;20024;-73
2021/06/13 10:24:07;;;;;;;;;;;;;;;17.46;53.01;101803.31;5068420;28;20469;-74
2021/06/13 10:26:41;;;;;;;1.13;0.80;;;;;;;17.47;52.61;101804.13;5074641;28;20426;-73
2021/06/13 10:29:07;;;;;;;5.25;1.20;;;;;;;17.41;52.25;101806.13;5073135;28;20029;-73
2021/06/13 10:31:33;;;;;;;2.88;0.80;;;;;;;17.47;52.42;101804.13;5074042;28;20031;-74
2021/06/13 10:33:58;;;;;;;1.20;0.82;;;;;;;17.52;52.11;101806.81;5074449;28;20073;-73
2021/06/13 10:36:24;;;;;;;3.28;1.10;;;;;;;17.48;51.92;101814.84;5055723;28;20040;-73
2021/06/13 10:38:49;;;;;;;2.45;0.65;;;;;;;17.50;51.99;101820.06;5073291;28;20040;-73
2021/06/13 10:41:15;;;;;;;3.28;1.10;;;;;;;17.54;51.21;101826.63;5074168;28;20469;-73
2021/06/13 10:43:41;;;;;;;3.30;1.10;;;;;;;17.55;51.26;101831.03;5060598;28;20024;-73
2021/06/13 10:46:12;;;;;;;4.25;1.10;;;;;;;17.58;51.43;101830.44;5073070;28;20369;-73
2021/06/13 10:48:49;;;;;;;2.15;0.90;;;;;;;17.69;51.32;101837.47;5054030;28;20372;-73
2021/06/13 10:51:29;;;;;;;3.85;1.30;;;;;;;17.75;51.48;101839.03;5057117;28;20024;-72
2021/06/13 10:54:15;;;;;;;2.47;1.52;;;;;;;17.78;51.16;101832.09;5067321;28;20028;-72
2021/06/13 10:56:40;;;;;;;2.80;1.10;;;;;;;17.71;50.56;101843.50;5064127;28;20021;-73
2021/06/13 10:59:15;;;;;;;4.00;1.08;;;;;;;17.64;50.81;101847.75;5072597;28;20028;-72
2021/06/13 11:02:08;;;;;;;3.45;1.30;;;;;;;17.82;50.54;101851.69;5073731;28;20523;-71
2021/06/13 11:04:43;;;;;;;3.13;1.10;;;;;;;17.85;50.29;101843.63;5073597;28;20020;-73
2021/06/13 11:10:11;;;;;;;4.80;1.38;;;;;;;17.97;50.52;101829.38;5051500;28;20028;-74
2021/06/13 11:13:10;;;;;;;6.65;1.80;;;;;;;18.19;52.01;101837.84;5073366;28;20025;-73
2021/06/13 11:15:38;;;;;;;6.75;2.38;;;;;;;18.12;52.38;101848.47;5071597;28;20028;-73
2021/06/13 11:18:07;;;;;;;6.45;1.58;;;;;;;18.02;52.20;101862.41;5073062;28;20035;-73
2021/06/13 11:21:18;;;;;;;7.10;2.08;;;;;;;18.15;52.54;101842.34;5072934;28;20035;-74
2021/06/13 11:23:43;;;;;;;2.70;1.50;;;;;;;18.27;51.79;101828.09;5072985;28;20107;-73
2021/06/13 11:26:33;;;;;;;4.03;1.73;;;;;;;18.41;51.67;101845.53;5055414;28;20487;-73
2021/06/13 11:28:59;;;;;;;6.38;2.05;;;;;;;18.42;51.53;101846.38;5060060;28;20112;-74
2021/06/13 11:31:25;;;;;;;5.35;1.85;;;;;;;18.44;51.69;101840.53;5055037;28;20055;-73